Annville, Kentucky
Current Conditions -  °F | °C
As of 2:53 PM on Friday 24 Oct 2014 (Local Time) from KLOZ Reporting Station
Clear Clear  
Wind Chill: 65°   Ceiling: Unl
Heat Index: 65°   Visibility: 10mi
Dew Point: 40°   Wind: 3mph
Humidity: 40%   Direction: NA
Pressure: 30.07"   Gusts: NA
Location:  37.32°N, 83.97°W
Report Text: KLOZ 241853Z AUTO VRB03KT 10SM CLR 18/04 A3007 RMK AO2 SLP182 T01830044
Loading
Personal Weather Stations






























Interactive Weather Map
Tropical Storm Tracking
New forecast layout! Learn more

10-Day Weather Forecast

Advertisements
Track Severe Weather on mobile